sensor_id;sensor_type;location;lat;lon;timestamp;temperature;humidity
3312;DHT22;1668;49.648;8.570;2023-07-31T00:01:23;18.90;1.00
3312;DHT22;1668;49.648;8.570;2023-07-31T00:03:50;18.90;99.90
3312;DHT22;1668;49.648;8.570;2023-07-31T00:06:18;18.90;1.00
3312;DHT22;1668;49.648;8.570;2023-07-31T00:08:45;18.90;99.90
3312;DHT22;1668;49.648;8.570;2023-07-31T00:11:12;18.90;1.00
3312;DHT22;1668;49.648;8.570;2023-07-31T00:13:39;18.80;1.00
3312;DHT22;1668;49.648;8.570;2023-07-31T00:16:06;18.80;1.00
3312;DHT22;1668;49.648;8.570;2023-07-31T00:18:32;18.80;1.00
3312;DHT22;1668;49.648;8.570;2023-07-31T00:20:59;18.80;1.00
3312;DHT22;1668;49.648;8.570;2023-07-31T00:23:28;18.80;99.90
3312;DHT22;1668;49.648;8.570;2023-07-31T00:25:54;18.80;99.90
3312;DHT22;1668;49.648;8.570;2023-07-31T00:28:21;18.80;99.90
3312;DHT22;1668;49.648;8.570;2023-07-31T00:30:48;18.80;99.90
3312;DHT22;1668;49.648;8.570;2023-07-31T00:33:15;18.80;1.00
3312;DHT22;1668;49.648;8.570;2023-07-31T00:35:42;18.80;99.90
3312;DHT22;1668;49.648;8.570;2023-07-31T00:38:09;18.80;99.90
3312;DHT22;1668;49.648;8.570;2023-07-31T00:40:37;18.80;28.40
3312;DHT22;1668;49.648;8.570;2023-07-31T00:43:04;18.80;99.90
3312;DHT22;1668;49.648;8.570;2023-07-31T00:45:31;18.70;99.90
3312;DHT22;1668;49.648;8.570;2023-07-31T00:47:59;18.70;1.00
3312;DHT22;1668;49.648;8.570;2023-07-31T00:50:27;18.70;1.00
3312;DHT22;1668;49.648;8.570;2023-07-31T00:52:54;18.70;99.90
3312;DHT22;1668;49.648;8.570;2023-07-31T00:55:21;18.70;99.90
3312;DHT22;1668;49.648;8.570;2023-07-31T00:57:51;18.70;99.90
3312;DHT22;1668;49.648;8.570;2023-07-31T01:00:21;18.70;99.90
3312;DHT22;1668;49.648;8.570;2023-07-31T01:02:49;18.70;99.90
3312;DHT22;1668;49.648;8.570;2023-07-31T01:05:17;18.60;99.90
3312;DHT22;1668;49.648;8.570;2023-07-31T01:07:54;18.60;99.90
3312;DHT22;1668;49.648;8.570;2023-07-31T01:10:26;18.60;99.90
3312;DHT22;1668;49.648;8.570;2023-07-31T01:12:56;18.60;99.90
3312;DHT22;1668;49.648;8.570;2023-07-31T01:15:24;18.60;99.90
3312;DHT22;1668;49.648;8.570;2023-07-31T01:17:50;18.60;99.90
3312;DHT22;1668;49.648;8.570;2023-07-31T01:20:20;18.60;1.00
3312;DHT22;1668;49.648;8.570;2023-07-31T01:26:04;18.50;1.00
3312;DHT22;1668;49.648;8.570;2023-07-31T01:28:40;18.50;1.00
3312;DHT22;1668;49.648;8.570;2023-07-31T01:31:12;18.50;1.00
3312;DHT22;1668;49.648;8.570;2023-07-31T01:33:40;18.50;1.00
3312;DHT22;1668;49.648;8.570;2023-07-31T01:36:07;18.40;1.00
3312;DHT22;1668;49.648;8.570;2023-07-31T01:38:35;18.40;1.00
3312;DHT22;1668;49.648;8.570;2023-07-31T01:41:03;18.50;99.90
3312;DHT22;1668;49.648;8.570;2023-07-31T01:43:30;18.40;1.00
3312;DHT22;1668;49.648;8.570;2023-07-31T01:45:57;18.50;99.90
3312;DHT22;1668;49.648;8.570;2023-07-31T01:48:23;18.50;1.00
3312;DHT22;1668;49.648;8.570;2023-07-31T01:50:50;18.40;1.00
3312;DHT22;1668;49.648;8.570;2023-07-31T01:53:17;18.40;1.00
3312;DHT22;1668;49.648;8.570;2023-07-31T01:55:44;18.40;1.00
3312;DHT22;1668;49.648;8.570;2023-07-31T01:58:12;18.40;1.00
3312;DHT22;1668;49.648;8.570;2023-07-31T02:00:39;18.40;1.00
3312;DHT22;1668;49.648;8.570;2023-07-31T02:03:06;18.40;1.00
3312;DHT22;1668;49.648;8.570;2023-07-31T02:05:33;18.40;99.90
3312;DHT22;1668;49.648;8.570;2023-07-31T02:08:00;18.40;1.00
3312;DHT22;1668;49.648;8.570;2023-07-31T02:10:27;18.40;1.00
3312;DHT22;1668;49.648;8.570;2023-07-31T02:12:53;18.30;1.00
3312;DHT22;1668;49.648;8.570;2023-07-31T02:15:22;18.30;1.00
3312;DHT22;1668;49.648;8.570;2023-07-31T02:17:49;18.30;1.00
3312;DHT22;1668;49.648;8.570;2023-07-31T02:20:16;18.30;1.00
3312;DHT22;1668;49.648;8.570;2023-07-31T02:22:42;18.30;1.00
3312;DHT22;1668;49.648;8.570;2023-07-31T02:25:09;18.30;1.00
3312;DHT22;1668;49.648;8.570;2023-07-31T02:27:36;18.30;1.00
3312;DHT22;1668;49.648;8.570;2023-07-31T02:30:03;18.30;1.00
3312;DHT22;1668;49.648;8.570;2023-07-31T02:32:32;18.20;99.90
3312;DHT22;1668;49.648;8.570;2023-07-31T02:34:59;18.20;99.90
3312;DHT22;1668;49.648;8.570;2023-07-31T02:37:26;18.20;1.00
3312;DHT22;1668;49.648;8.570;2023-07-31T02:39:54;18.20;14.80
3312;DHT22;1668;49.648;8.570;2023-07-31T02:42:21;18.20;29.80
3312;DHT22;1668;49.648;8.570;2023-07-31T02:44:48;18.10;99.90
3312;DHT22;1668;49.648;8.570;2023-07-31T02:47:16;18.20;1.00
3312;DHT22;1668;49.648;8.570;2023-07-31T02:49:45;18.20;95.40
3312;DHT22;1668;49.648;8.570;2023-07-31T02:52:11;18.10;1.00
3312;DHT22;1668;49.648;8.570;2023-07-31T02:54:38;18.10;1.00
3312;DHT22;1668;49.648;8.570;2023-07-31T02:57:05;18.10;99.90
3312;DHT22;1668;49.648;8.570;2023-07-31T02:59:32;18.10;1.00
3312;DHT22;1668;49.648;8.570;2023-07-31T03:01:59;18.10;1.00
3312;DHT22;1668;49.648;8.570;2023-07-31T03:04:26;18.10;99.90
3312;DHT22;1668;49.648;8.570;2023-07-31T03:06:54;18.10;1.00
3312;DHT22;1668;49.648;8.570;2023-07-31T03:09:21;18.10;1.00
3312;DHT22;1668;49.648;8.570;2023-07-31T03:11:48;18.10;1.00
3312;DHT22;1668;49.648;8.570;2023-07-31T03:14:15;18.10;1.00
3312;DHT22;1668;49.648;8.570;2023-07-31T03:16:42;18.00;99.90
3312;DHT22;1668;49.648;8.570;2023-07-31T03:19:08;18.10;1.00
3312;DHT22;1668;49.648;8.570;2023-07-31T03:21:35;18.00;99.90
3312;DHT22;1668;49.648;8.570;2023-07-31T03:24:04;18.00;1.00
3312;DHT22;1668;49.648;8.570;2023-07-31T03:26:31;18.00;1.00
3312;DHT22;1668;49.648;8.570;2023-07-31T03:28:58;18.00;1.00
3312;DHT22;1668;49.648;8.570;2023-07-31T03:31:25;18.00;99.90
3312;DHT22;1668;49.648;8.570;2023-07-31T03:33:52;18.00;1.00
3312;DHT22;1668;49.648;8.570;2023-07-31T03:36:19;18.00;99.90
3312;DHT22;1668;49.648;8.570;2023-07-31T03:38:46;18.00;1.00
3312;DHT22;1668;49.648;8.570;2023-07-31T03:41:14;18.00;1.00
3312;DHT22;1668;49.648;8.570;2023-07-31T03:43:41;18.00;11.60
3312;DHT22;1668;49.648;8.570;2023-07-31T03:46:08;18.00;1.00
3312;DHT22;1668;49.648;8.570;2023-07-31T03:48:35;18.00;1.00
3312;DHT22;1668;49.648;8.570;2023-07-31T03:51:02;18.00;1.00
3312;DHT22;1668;49.648;8.570;2023-07-31T03:53:29;18.00;85.50
3312;DHT22;1668;49.648;8.570;2023-07-31T03:55:56;18.00;1.00
3312;DHT22;1668;49.648;8.570;2023-07-31T03:58:24;18.00;1.00
3312;DHT22;1668;49.648;8.570;2023-07-31T04:00:51;17.90;99.90
3312;DHT22;1668;49.648;8.570;2023-07-31T04:03:18;17.90;1.00
3312;DHT22;1668;49.648;8.570;2023-07-31T04:05:44;17.90;99.90
3312;DHT22;1668;49.648;8.570;2023-07-31T04:08:11;17.90;1.00
3312;DHT22;1668;49.648;8.570;2023-07-31T04:10:38;17.90;99.90
3312;DHT22;1668;49.648;8.570;2023-07-31T04:13:05;17.90;99.90
3312;DHT22;1668;49.648;8.570;2023-07-31T04:15:33;17.90;1.00
3312;DHT22;1668;49.648;8.570;2023-07-31T04:18:00;17.90;99.90
3312;DHT22;1668;49.648;8.570;2023-07-31T04:20:27;17.90;1.00
3312;DHT22;1668;49.648;8.570;2023-07-31T04:22:57;17.90;1.00
3312;DHT22;1668;49.648;8.570;2023-07-31T04:25:24;17.90;99.90
3312;DHT22;1668;49.648;8.570;2023-07-31T04:27:51;17.90;1.00
3312;DHT22;1668;49.648;8.570;2023-07-31T04:30:18;17.90;1.00
3312;DHT22;1668;49.648;8.570;2023-07-31T04:32:46;17.90;1.00
3312;DHT22;1668;49.648;8.570;2023-07-31T04:35:13;17.90;99.90
3312;DHT22;1668;49.648;8.570;2023-07-31T04:37:40;17.90;99.90
3312;DHT22;1668;49.648;8.570;2023-07-31T04:40:08;17.90;99.90
3312;DHT22;1668;49.648;8.570;2023-07-31T04:42:35;17.90;99.90
3312;DHT22;1668;49.648;8.570;2023-07-31T04:45:02;17.90;99.90
3312;DHT22;1668;49.648;8.570;2023-07-31T04:47:29;17.90;1.00
3312;DHT22;1668;49.648;8.570;2023-07-31T04:49:57;17.80;1.00
3312;DHT22;1668;49.648;8.570;2023-07-31T04:52:24;17.90;99.90
3312;DHT22;1668;49.648;8.570;2023-07-31T04:54:51;17.80;1.00
3312;DHT22;1668;49.648;8.570;2023-07-31T04:57:18;17.80;1.00
3312;DHT22;1668;49.648;8.570;2023-07-31T04:59:45;17.80;1.00
3312;DHT22;1668;49.648;8.570;2023-07-31T05:02:12;17.90;1.00
3312;DHT22;1668;49.648;8.570;2023-07-31T05:04:39;17.90;1.00
3312;DHT22;1668;49.648;8.570;2023-07-31T05:07:07;17.90;99.90
3312;DHT22;1668;49.648;8.570;2023-07-31T05:09:34;17.90;99.90
3312;DHT22;1668;49.648;8.570;2023-07-31T05:12:01;17.90;1.00
3312;DHT22;1668;49.648;8.570;2023-07-31T05:14:28;17.80;1.00
3312;DHT22;1668;49.648;8.570;2023-07-31T05:16:55;17.90;1.00
3312;DHT22;1668;49.648;8.570;2023-07-31T05:19:21;17.90;1.00
3312;DHT22;1668;49.648;8.570;2023-07-31T05:21:48;17.90;99.90
3312;DHT22;1668;49.648;8.570;2023-07-31T05:24:16;17.90;99.90
3312;DHT22;1668;49.648;8.570;2023-07-31T05:26:43;17.90;1.00
3312;DHT22;1668;49.648;8.570;2023-07-31T05:29:10;17.90;1.00
3312;DHT22;1668;49.648;8.570;2023-07-31T05:31:37;17.90;1.00
3312;DHT22;1668;49.648;8.570;2023-07-31T05:34:05;17.90;1.00
3312;DHT22;1668;49.648;8.570;2023-07-31T05:36:31;17.90;1.00
3312;DHT22;1668;49.648;8.570;2023-07-31T05:38:58;17.90;99.90
3312;DHT22;1668;49.648;8.570;2023-07-31T05:41:26;17.90;1.00
3312;DHT22;1668;49.648;8.570;2023-07-31T05:43:53;17.90;1.00
3312;DHT22;1668;49.648;8.570;2023-07-31T05:46:20;17.90;1.00
3312;DHT22;1668;49.648;8.570;2023-07-31T05:48:47;18.00;1.00
3312;DHT22;1668;49.648;8.570;2023-07-31T05:51:14;18.00;1.00
3312;DHT22;1668;49.648;8.570;2023-07-31T05:53:41;18.00;1.00
3312;DHT22;1668;49.648;8.570;2023-07-31T05:56:09;18.00;1.00
3312;DHT22;1668;49.648;8.570;2023-07-31T05:58:37;18.00;1.00
3312;DHT22;1668;49.648;8.570;2023-07-31T06:01:04;18.00;1.00
3312;DHT22;1668;49.648;8.570;2023-07-31T06:03:31;18.10;1.00
3312;DHT22;1668;49.648;8.570;2023-07-31T06:05:58;18.10;99.90
3312;DHT22;1668;49.648;8.570;2023-07-31T06:08:25;18.10;1.00
3312;DHT22;1668;49.648;8.570;2023-07-31T06:10:52;18.20;99.90
3312;DHT22;1668;49.648;8.570;2023-07-31T06:13:19;18.20;1.00
3312;DHT22;1668;49.648;8.570;2023-07-31T06:15:47;18.20;99.90
3312;DHT22;1668;49.648;8.570;2023-07-31T06:18:14;18.30;1.00
3312;DHT22;1668;49.648;8.570;2023-07-31T06:20:41;18.30;1.00
3312;DHT22;1668;49.648;8.570;2023-07-31T06:23:08;18.30;1.00
3312;DHT22;1668;49.648;8.570;2023-07-31T06:25:35;18.30;1.00
3312;DHT22;1668;49.648;8.570;2023-07-31T06:28:02;18.30;1.00
3312;DHT22;1668;49.648;8.570;2023-07-31T06:30:29;18.30;99.90
3312;DHT22;1668;49.648;8.570;2023-07-31T06:32:57;18.40;99.90
3312;DHT22;1668;49.648;8.570;2023-07-31T06:35:24;18.40;99.90
3312;DHT22;1668;49.648;8.570;2023-07-31T06:37:50;18.50;99.90
3312;DHT22;1668;49.648;8.570;2023-07-31T06:40:17;18.50;99.90
3312;DHT22;1668;49.648;8.570;2023-07-31T06:42:45;18.50;99.90
3312;DHT22;1668;49.648;8.570;2023-07-31T06:45:11;18.50;1.00
3312;DHT22;1668;49.648;8.570;2023-07-31T06:47:38;18.50;1.00
3312;DHT22;1668;49.648;8.570;2023-07-31T06:50:08;18.40;99.90
3312;DHT22;1668;49.648;8.570;2023-07-31T06:52:35;18.40;99.90
3312;DHT22;1668;49.648;8.570;2023-07-31T06:55:03;18.40;1.00
3312;DHT22;1668;49.648;8.570;2023-07-31T06:57:30;18.50;1.00
3312;DHT22;1668;49.648;8.570;2023-07-31T06:59:57;18.50;99.90
3312;DHT22;1668;49.648;8.570;2023-07-31T07:02:23;18.60;99.90
3312;DHT22;1668;49.648;8.570;2023-07-31T07:04:50;18.60;1.00
3312;DHT22;1668;49.648;8.570;2023-07-31T07:07:19;18.60;99.00
3312;DHT22;1668;49.648;8.570;2023-07-31T07:09:46;18.60;1.00
3312;DHT22;1668;49.648;8.570;2023-07-31T07:12:12;18.60;99.90
3312;DHT22;1668;49.648;8.570;2023-07-31T07:14:39;18.60;1.00
3312;DHT22;1668;49.648;8.570;2023-07-31T07:17:06;18.70;99.90
3312;DHT22;1668;49.648;8.570;2023-07-31T07:19:33;18.70;99.90
3312;DHT22;1668;49.648;8.570;2023-07-31T07:21:59;18.80;99.90
3312;DHT22;1668;49.648;8.570;2023-07-31T07:24:28;18.90;1.00
3312;DHT22;1668;49.648;8.570;2023-07-31T07:26:55;18.90;1.00
3312;DHT22;1668;49.648;8.570;2023-07-31T07:29:22;18.90;1.00
3312;DHT22;1668;49.648;8.570;2023-07-31T07:31:49;19.00;18.40
3312;DHT22;1668;49.648;8.570;2023-07-31T07:34:16;19.00;1.00
3312;DHT22;1668;49.648;8.570;2023-07-31T07:36:43;19.00;99.90
3312;DHT22;1668;49.648;8.570;2023-07-31T07:39:10;19.10;99.90
3312;DHT22;1668;49.648;8.570;2023-07-31T07:41:39;19.10;12.60
3312;DHT22;1668;49.648;8.570;2023-07-31T07:44:05;19.20;99.90
3312;DHT22;1668;49.648;8.570;2023-07-31T07:46:32;19.20;1.00
3312;DHT22;1668;49.648;8.570;2023-07-31T07:48:59;19.30;1.00
3312;DHT22;1668;49.648;8.570;2023-07-31T07:51:26;19.30;1.00
3312;DHT22;1668;49.648;8.570;2023-07-31T07:53:53;19.40;1.00
3312;DHT22;1668;49.648;8.570;2023-07-31T07:56:20;19.50;6.90
3312;DHT22;1668;49.648;8.570;2023-07-31T07:58:50;19.60;1.00
3312;DHT22;1668;49.648;8.570;2023-07-31T08:01:17;19.60;99.90
3312;DHT22;1668;49.648;8.570;2023-07-31T08:03:43;19.60;52.20
3312;DHT22;1668;49.648;8.570;2023-07-31T08:06:10;19.70;1.00
3312;DHT22;1668;49.648;8.570;2023-07-31T08:08:38;19.70;1.00
3312;DHT22;1668;49.648;8.570;2023-07-31T08:11:05;19.70;1.00
3312;DHT22;1668;49.648;8.570;2023-07-31T08:13:32;19.80;99.90
3312;DHT22;1668;49.648;8.570;2023-07-31T08:16:00;19.90;99.90
3312;DHT22;1668;49.648;8.570;2023-07-31T08:18:26;19.80;73.80
3312;DHT22;1668;49.648;8.570;2023-07-31T08:20:53;19.80;99.90
3312;DHT22;1668;49.648;8.570;2023-07-31T08:23:20;19.90;99.90
3312;DHT22;1668;49.648;8.570;2023-07-31T08:25:47;19.90;1.00
3312;DHT22;1668;49.648;8.570;2023-07-31T08:28:15;20.00;99.90
3312;DHT22;1668;49.648;8.570;2023-07-31T08:30:42;20.10;99.90
3312;DHT22;1668;49.648;8.570;2023-07-31T08:33:10;20.10;99.90
3312;DHT22;1668;49.648;8.570;2023-07-31T08:35:37;20.10;96.30
3312;DHT22;1668;49.648;8.570;2023-07-31T08:38:04;20.20;99.90
3312;DHT22;1668;49.648;8.570;2023-07-31T08:40:31;20.30;45.80
3312;DHT22;1668;49.648;8.570;2023-07-31T08:42:58;20.30;99.90
3312;DHT22;1668;49.648;8.570;2023-07-31T08:45:28;20.40;99.90
3312;DHT22;1668;49.648;8.570;2023-07-31T08:47:56;20.40;1.00
3312;DHT22;1668;49.648;8.570;2023-07-31T08:50:24;20.50;1.00
3312;DHT22;1668;49.648;8.570;2023-07-31T08:52:52;20.70;1.00
3312;DHT22;1668;49.648;8.570;2023-07-31T08:55:19;20.80;99.90
3312;DHT22;1668;49.648;8.570;2023-07-31T08:57:50;20.90;30.20
3312;DHT22;1668;49.648;8.570;2023-07-31T09:00:18;21.00;1.00
3312;DHT22;1668;49.648;8.570;2023-07-31T09:02:56;21.10;1.00
3312;DHT22;1668;49.648;8.570;2023-07-31T09:05:26;21.10;1.00
3312;DHT22;1668;49.648;8.570;2023-07-31T09:07:53;21.10;1.00
3312;DHT22;1668;49.648;8.570;2023-07-31T09:10:22;21.10;1.00
3312;DHT22;1668;49.648;8.570;2023-07-31T09:12:50;21.00;1.00
3312;DHT22;1668;49.648;8.570;2023-07-31T09:15:17;21.10;1.00
3312;DHT22;1668;49.648;8.570;2023-07-31T09:17:45;21.10;99.90
3312;DHT22;1668;49.648;8.570;2023-07-31T09:20:16;21.10;1.00
3312;DHT22;1668;49.648;8.570;2023-07-31T09:22:45;21.00;1.00
3312;DHT22;1668;49.648;8.570;2023-07-31T09:25:16;21.00;99.90
3312;DHT22;1668;49.648;8.570;2023-07-31T09:27:47;21.00;1.00
3312;DHT22;1668;49.648;8.570;2023-07-31T09:30:14;21.00;99.90
3312;DHT22;1668;49.648;8.570;2023-07-31T09:32:42;21.10;1.00
3312;DHT22;1668;49.648;8.570;2023-07-31T09:35:20;21.10;1.00
3312;DHT22;1668;49.648;8.570;2023-07-31T09:37:52;21.10;1.00
3312;DHT22;1668;49.648;8.570;2023-07-31T09:40:26;21.10;1.00
3312;DHT22;1668;49.648;8.570;2023-07-31T09:42:57;21.10;1.00
3312;DHT22;1668;49.648;8.570;2023-07-31T09:45:25;21.10;99.90
3312;DHT22;1668;49.648;8.570;2023-07-31T09:47:52;21.10;99.90
3312;DHT22;1668;49.648;8.570;2023-07-31T09:50:21;21.10;99.90
3312;DHT22;1668;49.648;8.570;2023-07-31T09:52:49;21.10;99.90
3312;DHT22;1668;49.648;8.570;2023-07-31T09:55:17;21.10;99.90
3312;DHT22;1668;49.648;8.570;2023-07-31T09:57:46;21.00;99.90
3312;DHT22;1668;49.648;8.570;2023-07-31T10:00:15;21.10;99.90
3312;DHT22;1668;49.648;8.570;2023-07-31T10:02:45;21.10;99.90
3312;DHT22;1668;49.648;8.570;2023-07-31T10:05:16;21.10;99.90
3312;DHT22;1668;49.648;8.570;2023-07-31T10:07:49;21.10;99.90
3312;DHT22;1668;49.648;8.570;2023-07-31T10:10:20;21.10;99.90
3312;DHT22;1668;49.648;8.570;2023-07-31T10:12:48;21.20;99.90
3312;DHT22;1668;49.648;8.570;2023-07-31T10:15:16;21.20;99.90
3312;DHT22;1668;49.648;8.570;2023-07-31T10:17:44;21.20;99.90
3312;DHT22;1668;49.648;8.570;2023-07-31T10:20:13;21.30;99.90
3312;DHT22;1668;49.648;8.570;2023-07-31T10:22:42;21.30;99.90
3312;DHT22;1668;49.648;8.570;2023-07-31T10:25:11;21.40;34.10
3312;DHT22;1668;49.648;8.570;2023-07-31T10:27:40;21.50;99.90
3312;DHT22;1668;49.648;8.570;2023-07-31T10:30:10;21.70;99.90
3312;DHT22;1668;49.648;8.570;2023-07-31T10:32:38;21.80;1.00
3312;DHT22;1668;49.648;8.570;2023-07-31T10:35:08;21.90;1.00
3312;DHT22;1668;49.648;8.570;2023-07-31T10:37:40;21.90;99.90
3312;DHT22;1668;49.648;8.570;2023-07-31T10:40:11;22.00;1.00
3312;DHT22;1668;49.648;8.570;2023-07-31T10:42:46;22.00;99.90
3312;DHT22;1668;49.648;8.570;2023-07-31T10:45:23;22.00;1.00
3312;DHT22;1668;49.648;8.570;2023-07-31T10:47:58;22.10;1.00
3312;DHT22;1668;49.648;8.570;2023-07-31T10:50:26;22.20;1.00
3312;DHT22;1668;49.648;8.570;2023-07-31T10:52:54;22.20;99.90
3312;DHT22;1668;49.648;8.570;2023-07-31T10:55:27;22.20;1.00
3312;DHT22;1668;49.648;8.570;2023-07-31T10:57:57;22.10;99.90
3312;DHT22;1668;49.648;8.570;2023-07-31T11:00:26;22.10;1.00
3312;DHT22;1668;49.648;8.570;2023-07-31T11:03:01;22.20;99.90
3312;DHT22;1668;49.648;8.570;2023-07-31T11:05:48;22.20;99.90
3312;DHT22;1668;49.648;8.570;2023-07-31T11:08:17;22.20;99.90
3312;DHT22;1668;49.648;8.570;2023-07-31T11:10:46;22.30;99.90
3312;DHT22;1668;49.648;8.570;2023-07-31T11:13:14;22.20;99.90
3312;DHT22;1668;49.648;8.570;2023-07-31T11:15:41;22.20;99.90
3312;DHT22;1668;49.648;8.570;2023-07-31T11:18:08;22.20;99.90
3312;DHT22;1668;49.648;8.570;2023-07-31T11:20:37;22.20;1.00
3312;DHT22;1668;49.648;8.570;2023-07-31T11:23:07;22.30;1.00
3312;DHT22;1668;49.648;8.570;2023-07-31T11:25:34;22.20;1.00
3312;DHT22;1668;49.648;8.570;2023-07-31T11:28:06;22.30;1.00
3312;DHT22;1668;49.648;8.570;2023-07-31T11:30:34;22.10;99.90
3312;DHT22;1668;49.648;8.570;2023-07-31T11:33:02;22.10;99.90
3312;DHT22;1668;49.648;8.570;2023-07-31T11:35:31;22.00;99.90
3312;DHT22;1668;49.648;8.570;2023-07-31T11:37:58;21.90;1.00
3312;DHT22;1668;49.648;8.570;2023-07-31T11:40:25;21.80;1.00
3312;DHT22;1668;49.648;8.570;2023-07-31T11:42:56;21.70;99.90
3312;DHT22;1668;49.648;8.570;2023-07-31T11:45:25;21.60;1.00
3312;DHT22;1668;49.648;8.570;2023-07-31T11:47:56;21.60;32.70
3312;DHT22;1668;49.648;8.570;2023-07-31T11:50:23;21.60;42.30
3312;DHT22;1668;49.648;8.570;2023-07-31T11:52:55;21.60;1.00
3312;DHT22;1668;49.648;8.570;2023-07-31T11:55:24;21.50;1.00
3312;DHT22;1668;49.648;8.570;2023-07-31T11:57:51;21.50;99.90
3312;DHT22;1668;49.648;8.570;2023-07-31T12:00:19;21.50;1.00
3312;DHT22;1668;49.648;8.570;2023-07-31T12:02:46;21.50;1.00
3312;DHT22;1668;49.648;8.570;2023-07-31T12:05:15;21.60;1.00
3312;DHT22;1668;49.648;8.570;2023-07-31T12:07:46;21.60;1.00
3312;DHT22;1668;49.648;8.570;2023-07-31T12:10:27;21.60;1.00
3312;DHT22;1668;49.648;8.570;2023-07-31T12:13:03;21.70;1.00
3312;DHT22;1668;49.648;8.570;2023-07-31T12:15:42;21.70;99.90
3312;DHT22;1668;49.648;8.570;2023-07-31T12:18:10;21.70;1.00
3312;DHT22;1668;49.648;8.570;2023-07-31T12:20:46;21.70;14.80
3312;DHT22;1668;49.648;8.570;2023-07-31T12:23:14;21.80;1.00
3312;DHT22;1668;49.648;8.570;2023-07-31T12:25:42;21.80;2.70
3312;DHT22;1668;49.648;8.570;2023-07-31T12:28:09;21.80;80.80
3312;DHT22;1668;49.648;8.570;2023-07-31T12:30:38;21.90;1.00
3312;DHT22;1668;49.648;8.570;2023-07-31T12:33:06;21.90;1.00
3312;DHT22;1668;49.648;8.570;2023-07-31T12:35:37;21.90;1.00
3312;DHT22;1668;49.648;8.570;2023-07-31T12:38:06;21.90;1.00
3312;DHT22;1668;49.648;8.570;2023-07-31T12:40:33;21.90;1.00
3312;DHT22;1668;49.648;8.570;2023-07-31T12:43:03;22.00;1.00
3312;DHT22;1668;49.648;8.570;2023-07-31T12:45:30;21.90;1.00
3312;DHT22;1668;49.648;8.570;2023-07-31T12:47:57;21.90;1.00
3312;DHT22;1668;49.648;8.570;2023-07-31T12:50:24;21.90;1.00
3312;DHT22;1668;49.648;8.570;2023-07-31T12:52:51;21.90;1.00
3312;DHT22;1668;49.648;8.570;2023-07-31T12:55:19;22.00;1.00
3312;DHT22;1668;49.648;8.570;2023-07-31T13:09:10;22.00;1.00
3312;DHT22;1668;49.648;8.570;2023-07-31T13:11:37;22.20;1.00
3312;DHT22;1668;49.648;8.570;2023-07-31T13:14:04;22.20;1.00
3312;DHT22;1668;49.648;8.570;2023-07-31T13:16:31;22.20;1.00
3312;DHT22;1668;49.648;8.570;2023-07-31T13:18:56;22.20;1.00
3312;DHT22;1668;49.648;8.570;2023-07-31T13:21:23;22.20;1.00
3312;DHT22;1668;49.648;8.570;2023-07-31T13:23:50;22.20;1.00
3312;DHT22;1668;49.648;8.570;2023-07-31T13:26:18;22.20;1.00
3312;DHT22;1668;49.648;8.570;2023-07-31T13:28:45;22.20;1.00
3312;DHT22;1668;49.648;8.570;2023-07-31T13:31:12;22.20;1.00
3312;DHT22;1668;49.648;8.570;2023-07-31T13:33:39;22.20;1.00
3312;DHT22;1668;49.648;8.570;2023-07-31T13:36:05;22.20;99.90
3312;DHT22;1668;49.648;8.570;2023-07-31T13:38:32;22.10;1.00
3312;DHT22;1668;49.648;8.570;2023-07-31T13:40:59;22.10;1.00
3312;DHT22;1668;49.648;8.570;2023-07-31T13:43:27;22.20;1.00
3312;DHT22;1668;49.648;8.570;2023-07-31T13:45:54;22.20;1.00
3312;DHT22;1668;49.648;8.570;2023-07-31T13:48:21;22.20;1.00
3312;DHT22;1668;49.648;8.570;2023-07-31T13:50:48;22.20;1.00
3312;DHT22;1668;49.648;8.570;2023-07-31T13:53:15;22.20;1.00
3312;DHT22;1668;49.648;8.570;2023-07-31T13:55:42;22.20;1.00
3312;DHT22;1668;49.648;8.570;2023-07-31T13:58:11;22.20;1.00
3312;DHT22;1668;49.648;8.570;2023-07-31T14:00:39;22.30;1.00
3312;DHT22;1668;49.648;8.570;2023-07-31T14:03:06;22.20;1.00
3312;DHT22;1668;49.648;8.570;2023-07-31T14:05:33;22.20;1.00
3312;DHT22;1668;49.648;8.570;2023-07-31T14:08:00;22.20;1.00
3312;DHT22;1668;49.648;8.570;2023-07-31T14:10:27;22.20;1.00
3312;DHT22;1668;49.648;8.570;2023-07-31T14:12:54;22.20;75.80
3312;DHT22;1668;49.648;8.570;2023-07-31T14:15:20;22.30;1.00
3312;DHT22;1668;49.648;8.570;2023-07-31T14:17:49;22.30;1.00
3312;DHT22;1668;49.648;8.570;2023-07-31T14:20:16;22.20;1.00
3312;DHT22;1668;49.648;8.570;2023-07-31T14:22:43;22.20;1.00
3312;DHT22;1668;49.648;8.570;2023-07-31T14:25:10;22.30;60.80
3312;DHT22;1668;49.648;8.570;2023-07-31T14:27:36;22.30;21.40
3312;DHT22;1668;49.648;8.570;2023-07-31T14:30:04;22.30;1.00
3312;DHT22;1668;49.648;8.570;2023-07-31T14:32:31;22.30;1.00
3312;DHT22;1668;49.648;8.570;2023-07-31T14:35:00;22.30;1.00
3312;DHT22;1668;49.648;8.570;2023-07-31T14:37:26;22.30;1.00
3312;DHT22;1668;49.648;8.570;2023-07-31T14:40:03;22.30;1.00
3312;DHT22;1668;49.648;8.570;2023-07-31T14:42:30;22.30;1.00
3312;DHT22;1668;49.648;8.570;2023-07-31T14:44:57;22.30;1.00
3312;DHT22;1668;49.648;8.570;2023-07-31T14:47:24;22.40;1.00
3312;DHT22;1668;49.648;8.570;2023-07-31T14:49:51;22.50;1.00
3312;DHT22;1668;49.648;8.570;2023-07-31T14:52:19;22.50;1.00
3312;DHT22;1668;49.648;8.570;2023-07-31T14:54:46;22.50;1.00
3312;DHT22;1668;49.648;8.570;2023-07-31T14:57:12;22.60;1.00
3312;DHT22;1668;49.648;8.570;2023-07-31T14:59:39;22.70;1.00
3312;DHT22;1668;49.648;8.570;2023-07-31T15:02:07;22.70;1.00
3312;DHT22;1668;49.648;8.570;2023-07-31T15:04:35;22.70;1.00
3312;DHT22;1668;49.648;8.570;2023-07-31T15:07:02;22.60;1.00
3312;DHT22;1668;49.648;8.570;2023-07-31T15:09:30;22.60;1.00
3312;DHT22;1668;49.648;8.570;2023-07-31T15:11:57;22.60;1.00
3312;DHT22;1668;49.648;8.570;2023-07-31T15:14:24;22.60;1.00
3312;DHT22;1668;49.648;8.570;2023-07-31T15:16:52;22.60;1.00
3312;DHT22;1668;49.648;8.570;2023-07-31T15:19:19;22.60;1.00
3312;DHT22;1668;49.648;8.570;2023-07-31T15:21:48;22.60;1.00
3312;DHT22;1668;49.648;8.570;2023-07-31T15:24:15;22.60;1.00
3312;DHT22;1668;49.648;8.570;2023-07-31T15:26:43;22.60;1.00
3312;DHT22;1668;49.648;8.570;2023-07-31T15:29:10;22.60;1.00
3312;DHT22;1668;49.648;8.570;2023-07-31T15:31:43;22.60;1.00
3312;DHT22;1668;49.648;8.570;2023-07-31T15:34:10;22.60;1.00
3312;DHT22;1668;49.648;8.570;2023-07-31T15:36:37;22.60;1.00
3312;DHT22;1668;49.648;8.570;2023-07-31T15:39:04;22.60;1.00
3312;DHT22;1668;49.648;8.570;2023-07-31T15:41:31;22.60;1.00
3312;DHT22;1668;49.648;8.570;2023-07-31T15:43:59;22.60;1.00
3312;DHT22;1668;49.648;8.570;2023-07-31T15:46:26;22.70;1.00
3312;DHT22;1668;49.648;8.570;2023-07-31T15:48:53;22.70;99.90
3312;DHT22;1668;49.648;8.570;2023-07-31T15:51:20;22.70;99.90
3312;DHT22;1668;49.648;8.570;2023-07-31T15:53:47;22.70;99.90
3312;DHT22;1668;49.648;8.570;2023-07-31T15:56:14;22.80;99.90
3312;DHT22;1668;49.648;8.570;2023-07-31T15:58:42;22.80;99.90
3312;DHT22;1668;49.648;8.570;2023-07-31T16:01:10;22.80;99.90
3312;DHT22;1668;49.648;8.570;2023-07-31T16:03:37;22.90;99.90
3312;DHT22;1668;49.648;8.570;2023-07-31T16:06:04;22.90;99.90
3312;DHT22;1668;49.648;8.570;2023-07-31T16:08:31;22.90;99.90
3312;DHT22;1668;49.648;8.570;2023-07-31T16:10:58;22.80;99.90
3312;DHT22;1668;49.648;8.570;2023-07-31T16:13:25;22.80;99.90
3312;DHT22;1668;49.648;8.570;2023-07-31T16:15:52;22.80;99.90
3312;DHT22;1668;49.648;8.570;2023-07-31T16:18:20;22.80;99.90
3312;DHT22;1668;49.648;8.570;2023-07-31T16:20:47;22.80;99.90
3312;DHT22;1668;49.648;8.570;2023-07-31T16:23:15;22.70;99.90
3312;DHT22;1668;49.648;8.570;2023-07-31T16:25:42;22.70;99.90
3312;DHT22;1668;49.648;8.570;2023-07-31T16:28:09;22.60;99.90
3312;DHT22;1668;49.648;8.570;2023-07-31T16:30:36;22.60;99.90